Columbus, OH (43236)

1:11 AM EDT on August 31, 2014 (GMT -0400)
Royal Manor | Change Station
CLOSE
Current Station
Personal Weather Station
Location: Gahanna, OH
Elevation: 827 ft
Nearby Weather Stations

Elev 827 ft 40.02 °N, 82.90 °W | Updated 7 seconds ago

Light Rain
Light Rain
71.6 °F
Feels Like 71.6 °F
N
0.0
Wind Variable Wind from NNW
Gusts 2.0 mph

Today
High -- | Low -- °F
--% Chance of Precip.
Yesterday
High -- | Low -- °F
Precip. -- in
6:58 AM 8:04 PM
Waxing Crescent, 27% visible
Pressure 30.02 in
Visibility 8.0 miles
Clouds Mostly Cloudy 7500 ft
Overcast 10000 ft
Dew Point 68 °F
Humidity 88%
Rainfall 0.02 in
Snow Depth Not available.
UV 0 out of 12
Pollen 11.10 out of 12
PM2.5 Moderate
Flu Activity Not available.
METAR KCMH 310451Z 23006KT 8SM -RA BKN075 OVC100 24/20 A3005 RMK AO2 RAB01 SLP166 P0000 T02390200 403390211

More Conditions Fewer Conditions

Pressure 30.02 in
Visibility 8.0 miles
Clouds Mostly Cloudy 7500 ft
Overcast 10000 ft
Dew Point 68 °F
Humidity 88%
Rainfall 0.02 in
Snow Depth Not available.
UV 0 out of 12
Pollen 11.10 out of 12
PM2.5 Moderate
Flu Activity Not available.
METAR KCMH 310451Z 23006KT 8SM -RA BKN075 OVC100 24/20 A3005 RMK AO2 RAB01 SLP166 P0000 T02390200 403390211

More Conditions Fewer Conditions

10-Day Weather Forecast

Almanac

Astronomy

Aug. 31, 2014 Rise Set
Actual Time 6:58 AM EDT 8:04 PM EDT
Civil Twilight 6:30 AM EDT 8:32 PM EDT
Nautical Twilight 5:57 AM EDT 9:05 PM EDT
Astronomical Twilight 5:22 AM EDT 9:40 PM EDT
Moon 12:43 PM EDT 11:18 PM EDT
Length of Visible Light 14h 01m
Length of Day
13h 06m
Tomorrow will be 2m 32s shorter.
Waxing Crescent, 27% of the Moon is Illuminated
Today
Waxing Crescent
Sep 2
First Quarter
Sep 8
Full
Sep 15
Last Quarter
Sep 24
New

Today's Extremes

State Highs State Lows

Community

WunderPhotos

Upload Photos

1,748,786 photos uploaded!

Nearby

Air Quality

  Air Quality AQ Index Pollutant
Yesterday Moderate
OZONE
Yesterday Good
PM2.5
Current Moderate
PM2.5
Saturday Moderate
OZONE
Saturday Moderate
PM2.5
Sunday Good
OZONE
Sunday Good
PM2.5
Monday Good
PM2.5
Monday Good
OZONE
Tuesday Good
OZONE
Tuesday Good
PM2.5
Wednesday Moderate
PM2.5
Wednesday Moderate
OZONE
Thursday Moderate
OZONE
Thursday Moderate
PM2.5

Snow Depth

Station Depth Elevation
No new snow has been reported.

Earthquake Activity

City Distance Mag. Time & Date
No recent earthquake activity has been reported nearby.
Minimum magnitude displayed is 2.5.

Coastal Water Temperatures

Place Temperature
No Stations Reporting

Nearby Weather Stations